Time;durP1;ratioP1;P1;durP2;ratioP2;P2;SDS_P1;SDS_P2;PMS_P1;PMS_P2;Temp;Humidity;BMP_temperature;BMP_pressure;BME280_temperature;BME280_humidity;BME280_pressure;Samples;Min_cycle;Max_cycle;Signal;HPM_P1;HPM_P2
2024/01/08 00:02:15;;;;;;;10.93;5.90;;;;;;;-144.73;100.00;54684.78;5016335;28;20558;-72
2024/01/08 00:04:40;;;;;;;16.73;6.63;;;;;;;-144.73;100.00;54690.97;5032893;28;20029;-72
2024/01/08 00:07:05;;;;;;;11.03;5.33;;;;;;;-144.73;100.00;54656.06;5022661;28;20061;-72
2024/01/08 00:09:31;;;;;;;13.63;6.33;;;;;;;-144.73;100.00;54670.44;5032762;28;20473;-72
2024/01/08 00:11:56;;;;;;;11.77;5.10;;;;;;;-144.73;100.00;54674.53;5032122;28;20492;-71
2024/01/08 00:14:21;;;;;;;12.53;5.90;;;;;;;-144.73;100.00;54686.84;5032955;28;20076;-72
2024/01/08 00:16:47;;;;;;;11.70;5.73;;;;;;;-144.73;100.00;54629.38;5032416;28;20508;-72
2024/01/08 00:19:12;;;;;;;17.93;6.03;;;;;;;-144.73;100.00;54674.53;5032796;28;20507;-72
2024/01/08 00:21:38;;;;;;;10.80;5.87;;;;;;;-144.73;100.00;54711.47;5015664;28;20069;-72
2024/01/08 00:24:03;;;;;;;10.87;5.70;;;;;;;-144.73;100.00;54670.44;5032768;28;20480;-72
2024/01/08 00:26:29;;;;;;;9.07;5.30;;;;;;;-144.73;100.00;54654.00;5015698;28;20079;-72
2024/01/08 00:28:54;;;;;;;13.93;5.47;;;;;;;-144.73;100.00;54674.53;5032553;28;20499;-72
2024/01/08 00:31:20;;;;;;;11.97;5.67;;;;;;;-144.73;100.00;54699.16;5032147;28;20082;-74
2024/01/08 00:33:45;;;;;;;13.23;5.67;;;;;;;-144.73;100.00;54670.44;5015885;28;20064;-72
2024/01/08 00:36:10;;;;;;;13.40;5.90;;;;;;;-144.73;100.00;54674.53;5015305;28;20032;-71
2024/01/08 00:38:36;;;;;;;12.17;5.77;;;;;;;-144.73;100.00;54690.97;5032265;28;20025;-72
2024/01/08 00:41:01;;;;;;;15.67;5.50;;;;;;;-144.73;100.00;54662.22;5032254;28;20040;-72
2024/01/08 00:43:26;;;;;;;11.77;5.10;;;;;;;-144.73;100.00;54682.75;5015349;28;20041;-72
2024/01/08 00:45:52;;;;;;;16.03;5.47;;;;;;;-144.73;100.00;54678.63;5032426;28;20021;-72
2024/01/08 00:48:17;;;;;;;13.03;5.03;;;;;;;-144.73;100.00;54670.44;5031545;28;20044;-72
2024/01/08 00:50:43;;;;;;;13.13;5.63;;;;;;;-144.73;100.00;54697.13;5032319;28;20069;-72
2024/01/08 00:53:09;;;;;;;17.57;5.40;;;;;;;-144.73;100.00;54670.44;5031567;28;20043;-72
2024/01/08 00:55:34;;;;;;;15.57;5.97;;;;;;;-144.73;100.00;54658.13;5015717;28;20030;-72
2024/01/08 00:58:00;;;;;;;12.80;5.53;;;;;;;-144.73;100.00;54662.22;5031371;28;20052;-72
2024/01/08 01:00:25;;;;;;;13.47;5.40;;;;;;;-144.73;100.00;54645.78;5032029;28;20021;-72
2024/01/08 01:02:51;;;;;;;15.37;5.97;;;;;;;-144.73;100.00;54654.00;5014414;28;20052;-71
2024/01/08 01:05:16;;;;;;;11.77;6.07;;;;;;;-144.73;100.00;54658.13;5031846;28;20025;-71
2024/01/08 01:07:45;;;;;;;14.97;5.90;;;;;;;-144.73;100.00;54693.00;5015434;28;20041;-71
2024/01/08 01:10:10;;;;;;;14.93;5.83;;;;;;;-144.73;100.00;54684.78;5015341;28;20029;-70
2024/01/08 01:12:36;;;;;;;11.07;5.73;;;;;;;-144.73;100.00;54670.44;5031378;28;20033;-71
2024/01/08 01:15:01;;;;;;;13.13;5.23;;;;;;;-144.73;100.00;54686.84;5031561;28;20028;-72
2024/01/08 01:17:26;;;;;;;16.93;5.77;;;;;;;-144.73;100.00;54690.97;5014718;28;20496;-71
2024/01/08 01:19:52;;;;;;;19.27;5.57;;;;;;;-144.73;100.00;54682.75;5031850;28;20034;-72
2024/01/08 01:22:17;;;;;;;10.70;5.40;;;;;;;-144.73;100.00;54678.63;5015029;28;20045;-72
2024/01/08 01:24:42;;;;;;;13.60;5.47;;;;;;;-144.73;100.00;54658.13;5031599;28;20185;-72
2024/01/08 01:27:08;;;;;;;15.70;5.93;;;;;;;-144.73;100.00;54670.44;5021155;28;20396;-72
2024/01/08 01:29:33;;;;;;;11.37;5.50;;;;;;;-144.73;100.00;54658.13;5031635;28;20460;-72
2024/01/08 01:31:59;;;;;;;12.83;5.53;;;;;;;-144.73;100.00;54684.78;5014701;28;20041;-72
2024/01/08 01:34:25;;;;;;;15.53;6.17;;;;;;;-144.73;100.00;54682.75;5031013;28;20029;-74
2024/01/08 01:36:50;;;;;;;14.83;5.93;;;;;;;-144.73;100.00;54670.44;5021347;28;20033;-75
2024/01/08 01:39:15;;;;;;;11.57;5.47;;;;;;;-144.73;100.00;54703.28;5031583;28;20025;-74
2024/01/08 01:41:41;;;;;;;14.07;6.07;;;;;;;-144.73;100.00;54654.00;5030859;28;20033;-74
2024/01/08 01:44:06;;;;;;;13.10;5.70;;;;;;;-144.73;100.00;54699.16;5031467;28;20025;-74
2024/01/08 01:46:44;;;;;;;14.43;6.07;;;;;;;-144.73;100.00;54654.00;5013630;28;20064;-74
2024/01/08 01:49:18;;;;;;;14.67;5.77;;;;;;;-144.73;100.00;54693.00;5014716;28;20029;-74
2024/01/08 01:51:45;;;;;;;21.77;7.00;;;;;;;-144.73;100.00;54645.78;5014090;28;20045;-74
2024/01/08 01:54:12;;;;;;;10.73;5.93;;;;;;;-144.73;100.00;54719.69;5014828;28;20484;-75
2024/01/08 01:56:47;;;;;;;13.93;6.20;;;;;;;-144.73;100.00;54670.44;5030693;28;20045;-74
2024/01/08 01:59:15;;;;;;;10.93;5.63;;;;;;;-144.73;100.00;54688.91;5014720;28;20538;-74
2024/01/08 02:01:41;;;;;;;17.40;5.87;;;;;;;-144.73;100.00;54686.84;5030698;28;20033;-74
2024/01/08 02:04:08;;;;;;;16.93;5.93;;;;;;;-144.73;100.00;54637.59;5031118;28;20056;-74
2024/01/08 02:06:35;;;;;;;19.00;5.97;;;;;;;-144.73;100.00;54649.91;5013789;28;20039;-74
2024/01/08 02:09:03;;;;;;;12.70;5.50;;;;;;;-144.73;100.00;54662.22;5014409;28;20123;-75
2024/01/08 02:11:29;;;;;;;13.63;6.13;;;;;;;-144.73;100.00;54651.97;5030704;28;20112;-75
2024/01/08 02:13:54;;;;;;;17.87;5.10;;;;;;;-144.73;100.00;54654.00;5016442;28;20112;-75
2024/01/08 02:16:35;;;;;;;11.27;5.07;;;;;;;-144.73;100.00;54686.84;5079545;27;20409;-75
2024/01/08 02:19:01;;;;;;;16.00;4.60;;;;;;;-144.73;100.00;54654.00;5028777;28;20065;-75
2024/01/08 02:21:26;;;;;;;15.87;5.20;;;;;;;-144.73;100.00;54670.44;5027951;28;20076;-75
2024/01/08 02:23:52;;;;;;;9.70;4.83;;;;;;;-144.73;100.00;54686.84;5029831;28;20022;-76
2024/01/08 02:26:17;;;;;;;12.43;4.63;;;;;;;-144.73;100.00;54670.44;5029555;28;20037;-74
2024/01/08 02:28:43;;;;;;;10.60;5.13;;;;;;;-144.73;100.00;54670.44;5030397;28;20464;-75
2024/01/08 02:31:08;;;;;;;11.13;4.67;;;;;;;-144.73;100.00;54678.63;5029609;28;20037;-75
2024/01/08 02:33:34;;;;;;;10.43;4.50;;;;;;;-144.73;100.00;54641.69;5028319;28;20080;-75
2024/01/08 02:36:00;;;;;;;13.30;4.80;;;;;;;-144.73;100.00;54697.13;5028305;28;20025;-74
2024/01/08 02:38:25;;;;;;;9.23;4.23;;;;;;;-144.73;100.00;54654.00;5027792;28;20124;-75
2024/01/08 02:40:51;;;;;;;7.17;3.63;;;;;;;-144.73;100.00;54662.22;5028210;28;20022;-75
2024/01/08 02:43:16;;;;;;;12.30;4.10;;;;;;;-144.73;100.00;54744.31;5045146;28;20048;-74
2024/01/08 02:45:41;;;;;;;9.00;3.97;;;;;;;-144.73;100.00;54678.63;5048743;28;20029;-75
2024/01/08 02:48:07;;;;;;;11.93;3.60;;;;;;;-144.73;100.00;54707.38;5047901;28;20056;-75
2024/01/08 02:50:33;;;;;;;10.50;4.47;;;;;;;-144.73;100.00;54682.75;5048107;28;20129;-75
2024/01/08 02:52:58;;;;;;;7.33;3.50;;;;;;;-144.73;100.00;54690.97;5047342;28;20072;-74
2024/01/08 02:55:23;;;;;;;8.13;3.73;;;;;;;-144.73;100.00;54670.44;5047824;28;20040;-75
2024/01/08 02:57:48;;;;;;;9.13;3.67;;;;;;;-144.73;100.00;54686.84;5047563;28;20087;-74
2024/01/08 03:00:14;;;;;;;11.00;3.77;;;;;;;-144.73;100.00;54674.53;5048091;28;20025;-74
2024/01/08 03:02:40;;;;;;;9.47;3.60;;;;;;;-144.73;100.00;54658.13;5047238;28;20108;-74
2024/01/08 03:05:06;;;;;;;11.00;3.30;;;;;;;-144.73;100.00;54674.53;5047713;28;20024;-75
2024/01/08 03:07:31;;;;;;;11.23;3.40;;;;;;;-144.73;100.00;54684.78;5048279;28;20048;-75
2024/01/08 03:09:58;;;;;;;8.27;2.93;;;;;;;-144.73;100.00;54715.59;5047851;28;20040;-75
2024/01/08 03:12:24;;;;;;;7.50;3.43;;;;;;;-144.73;100.00;54682.75;5046692;28;20115;-75
2024/01/08 03:14:50;;;;;;;16.07;3.73;;;;;;;-144.73;100.00;54690.97;5047484;28;20032;-75
2024/01/08 03:17:15;;;;;;;8.80;2.90;;;;;;;-144.73;100.00;54690.97;5047969;28;20037;-75
2024/01/08 03:19:41;;;;;;;12.50;4.00;;;;;;;-144.73;100.00;54643.75;5048723;28;20165;-74
2024/01/08 03:22:06;;;;;;;7.97;3.30;;;;;;;-144.73;100.00;54674.53;5046985;28;20496;-74
2024/01/08 03:24:31;;;;;;;10.00;3.43;;;;;;;-144.73;100.00;54670.44;5048625;28;20025;-74
2024/01/08 03:26:57;;;;;;;13.17;4.03;;;;;;;-144.73;100.00;54649.91;5038861;28;20033;-74
2024/01/08 03:29:23;;;;;;;7.47;3.27;;;;;;;-144.73;100.00;54676.59;5035118;28;20052;-74
2024/01/08 03:31:48;;;;;;;7.83;3.27;;;;;;;-144.73;100.00;54682.75;5034624;28;20108;-75
2024/01/08 03:34:16;;;;;;;14.67;3.10;;;;;;;-144.73;100.00;54670.44;5034156;28;20476;-75
2024/01/08 03:36:46;;;;;;;11.20;3.47;;;;;;;-144.73;100.00;54703.28;5033134;28;20037;-74
2024/01/08 03:39:13;;;;;;;8.70;3.50;;;;;;;-144.73;100.00;54645.78;5033987;28;20021;-74
2024/01/08 03:41:39;;;;;;;7.63;3.50;;;;;;;-144.73;100.00;54658.13;5033153;28;20034;-74
2024/01/08 03:44:05;;;;;;;9.73;3.40;;;;;;;-144.73;100.00;54639.63;5034939;28;20032;-74
2024/01/08 03:46:30;;;;;;;19.37;6.70;;;;;;;-144.73;100.00;54674.53;5033114;28;20033;-74
2024/01/08 03:48:55;;;;;;;14.40;6.23;;;;;;;-144.73;100.00;54670.44;5018153;28;20072;-74
2024/01/08 03:51:21;;;;;;;10.43;3.60;;;;;;;-144.73;100.00;54672.47;5032760;28;20036;-74
2024/01/08 03:53:46;;;;;;;14.17;4.00;;;;;;;-144.73;100.00;54707.38;5033911;28;20052;-75
2024/01/08 03:56:12;;;;;;;14.80;3.33;;;;;;;-144.73;100.00;54662.22;5033026;28;20057;-75
2024/01/08 03:58:37;;;;;;;8.17;4.07;;;;;;;-144.73;100.00;54678.63;5033350;28;20122;-75
2024/01/08 04:01:04;;;;;;;11.63;3.70;;;;;;;-144.73;100.00;54649.91;5033244;28;20033;-75
2024/01/08 04:03:29;;;;;;;11.77;4.00;;;;;;;-144.73;100.00;54662.22;5032525;28;20038;-74
2024/01/08 04:05:55;;;;;;;12.93;3.10;;;;;;;-144.73;100.00;54670.44;5033044;28;20112;-74
2024/01/08 04:08:20;;;;;;;9.53;3.93;;;;;;;-144.73;100.00;54654.00;5032959;28;20040;-75
2024/01/08 04:10:45;;;;;;;11.60;3.50;;;;;;;-144.73;100.00;54654.00;5033254;28;20031;-75
2024/01/08 04:13:11;;;;;;;19.23;4.00;;;;;;;-144.73;100.00;54686.84;5032691;28;20068;-75
2024/01/08 04:15:36;;;;;;;15.23;4.23;;;;;;;-144.73;100.00;54682.75;5034415;28;20029;-74
2024/01/08 04:18:02;;;;;;;8.17;3.40;;;;;;;-144.73;100.00;54686.84;5032626;28;20045;-74
2024/01/08 04:20:27;;;;;;;27.10;4.50;;;;;;;-144.73;100.00;54695.06;5032887;28;20033;-75
2024/01/08 04:22:53;;;;;;;12.47;4.50;;;;;;;-144.73;100.00;54690.97;5032624;28;20053;-75
2024/01/08 04:25:18;;;;;;;19.63;4.27;;;;;;;-144.73;100.00;54649.91;5032536;28;20122;-75
2024/01/08 04:27:43;;;;;;;9.73;3.90;;;;;;;-144.73;100.00;54670.44;5032785;28;20202;-75
2024/01/08 04:30:10;;;;;;;15.40;4.03;;;;;;;-144.73;100.00;54690.97;5033176;28;20105;-74
2024/01/08 04:32:36;;;;;;;13.50;3.90;;;;;;;-144.73;100.00;54678.63;5032388;28;20029;-75
2024/01/08 04:35:02;;;;;;;7.57;3.10;;;;;;;-144.73;100.00;54658.13;5034031;28;20388;-74
2024/01/08 04:37:28;;;;;;;10.80;4.50;;;;;;;-144.73;100.00;54699.16;5031988;28;20107;-75
2024/01/08 04:39:53;;;;;;;17.73;4.90;;;;;;;-144.73;100.00;54680.69;5031908;28;20025;-74
2024/01/08 04:42:19;;;;;;;11.57;3.87;;;;;;;-144.73;100.00;54678.63;5026149;28;20063;-75
2024/01/08 04:44:45;;;;;;;12.77;4.47;;;;;;;-144.73;100.00;54719.69;5033106;28;20041;-74
2024/01/08 04:47:12;;;;;;;11.85;3.83;;;;;;;-144.73;100.00;54670.44;5033379;28;20033;-75
2024/01/08 04:49:38;;;;;;;10.90;4.00;;;;;;;-144.73;100.00;54654.00;5033404;28;20029;-75
2024/01/08 04:52:04;;;;;;;12.07;3.93;;;;;;;-144.73;100.00;54690.97;5032119;28;20039;-74
2024/01/08 04:54:29;;;;;;;10.73;4.13;;;;;;;-144.73;100.00;54695.06;5032204;28;20034;-74
2024/01/08 04:56:55;;;;;;;9.90;3.80;;;;;;;-144.73;100.00;54707.38;5033238;28;20061;-74
2024/01/08 04:59:22;;;;;;;12.55;3.80;;;;;;;-144.73;100.00;54690.97;5031963;28;20029;-74
2024/01/08 05:01:49;;;;;;;10.73;3.70;;;;;;;-144.73;100.00;54641.69;5032782;28;20041;-74
2024/01/08 05:04:14;;;;;;;10.80;3.90;;;;;;;-144.73;100.00;54695.06;5032367;28;20032;-74
2024/01/08 05:06:39;;;;;;;9.33;3.40;;;;;;;-144.73;100.00;54654.00;5031627;28;20041;-75
2024/01/08 05:09:05;;;;;;;9.23;3.00;;;;;;;-144.73;100.00;54649.91;5032447;28;20036;-74
2024/01/08 05:11:30;;;;;;;9.40;3.43;;;;;;;-144.73;100.00;54670.44;5032600;28;20041;-74
2024/01/08 05:13:56;;;;;;;11.47;3.90;;;;;;;-144.73;100.00;54637.59;5024623;28;20033;-74
2024/01/08 05:16:21;;;;;;;16.63;3.43;;;;;;;-144.73;100.00;54695.06;5032335;28;20083;-75
2024/01/08 05:18:46;;;;;;;14.90;3.70;;;;;;;-144.73;100.00;54682.75;5031503;28;20034;-75
2024/01/08 05:21:15;;;;;;;8.23;3.67;;;;;;;-144.73;100.00;54670.44;5032349;28;20040;-75
2024/01/08 05:23:40;;;;;;;6.97;2.80;;;;;;;-144.73;100.00;54643.75;5031519;28;20108;-75
2024/01/08 05:26:06;;;;;;;5.17;2.67;;;;;;;-144.73;100.00;54676.59;5031887;28;20059;-75
2024/01/08 05:28:34;;;;;;;7.77;3.33;;;;;;;-144.73;100.00;54645.78;5031409;28;20040;-74
2024/01/08 05:31:00;;;;;;;10.17;2.47;;;;;;;-144.73;100.00;54641.69;5031458;28;20442;-75
2024/01/08 05:33:26;;;;;;;5.00;2.37;;;;;;;-144.73;100.00;54674.53;5031089;28;20040;-75
2024/01/08 05:35:54;;;;;;;8.20;2.60;;;;;;;-144.73;100.00;54690.97;5031337;28;20032;-74
2024/01/08 05:38:24;;;;;;;8.30;2.67;;;;;;;-144.73;100.00;54670.44;5031040;28;20045;-75
2024/01/08 05:40:49;;;;;;;5.80;2.33;;;;;;;-144.73;100.00;54682.75;5031903;28;20044;-75
2024/01/08 05:43:15;;;;;;;9.17;2.80;;;;;;;-144.73;100.00;54695.06;5026077;28;20029;-76
2024/01/08 05:45:41;;;;;;;6.43;2.50;;;;;;;-144.73;100.00;54670.44;5048612;28;20032;-75
2024/01/08 05:48:07;;;;;;;6.50;2.27;;;;;;;-144.73;100.00;54703.28;5025907;28;20400;-75
2024/01/08 05:50:32;;;;;;;9.93;2.80;;;;;;;-144.73;100.00;54645.78;5032368;28;20393;-75
2024/01/08 05:52:59;;;;;;;7.10;2.60;;;;;;;-144.73;100.00;54651.97;5031704;28;20037;-75
2024/01/08 05:55:24;;;;;;;6.67;3.93;;;;;;;-144.73;100.00;54670.44;5031582;28;20108;-75
2024/01/08 05:57:52;;;;;;;9.53;3.17;;;;;;;-144.73;100.00;54707.38;5030589;28;20128;-75
2024/01/08 06:00:18;;;;;;;7.00;2.40;;;;;;;-144.73;100.00;54658.13;5030952;28;20040;-76
2024/01/08 06:02:44;;;;;;;8.90;2.97;;;;;;;-144.73;100.00;54690.97;5030668;28;20034;-75
2024/01/08 06:05:09;;;;;;;4.77;2.20;;;;;;;-144.73;100.00;54645.78;5031471;28;20060;-75
2024/01/08 06:07:35;;;;;;;7.27;2.57;;;;;;;-144.73;100.00;54686.84;5030937;28;20112;-75
2024/01/08 06:10:03;;;;;;;9.03;2.97;;;;;;;-144.73;100.00;54693.00;5030776;28;20030;-75
2024/01/08 06:12:31;;;;;;;7.40;3.10;;;;;;;-144.73;100.00;54629.38;5023615;28;20030;-75
2024/01/08 06:14:57;;;;;;;6.87;2.60;;;;;;;-144.73;100.00;54639.63;5031369;28;20021;-75
2024/01/08 06:17:22;;;;;;;11.50;3.13;;;;;;;-144.73;100.00;54670.44;5030748;28;20116;-75
2024/01/08 06:19:48;;;;;;;8.80;2.80;;;;;;;-144.73;100.00;54662.22;5030937;28;20095;-75
2024/01/08 06:22:15;;;;;;;6.97;2.60;;;;;;;-144.73;100.00;54645.78;5030999;28;20026;-74
2024/01/08 06:24:40;;;;;;;5.87;2.57;;;;;;;-144.73;100.00;54670.44;5031313;28;20024;-74
2024/01/08 06:27:06;;;;;;;5.87;2.67;;;;;;;-144.73;100.00;54629.38;5030970;28;20025;-74
2024/01/08 06:29:32;;;;;;;6.73;2.63;;;;;;;-144.73;100.00;54678.63;5031109;28;20021;-76
2024/01/08 06:31:57;;;;;;;8.47;2.93;;;;;;;-144.73;100.00;54674.53;5022475;28;20061;-75
2024/01/08 06:34:22;;;;;;;5.33;2.60;;;;;;;-144.73;100.00;54670.44;5030732;28;20018;-76
2024/01/08 06:36:48;;;;;;;8.47;3.07;;;;;;;-144.73;100.00;54686.84;5030213;28;20042;-75
2024/01/08 06:39:13;;;;;;;7.03;3.03;;;;;;;-144.73;100.00;54715.59;5030808;28;20025;-75
2024/01/08 06:41:38;;;;;;;11.07;4.20;;;;;;;-144.73;100.00;54690.97;5030299;28;20053;-74
2024/01/08 06:44:04;;;;;;;8.00;2.60;;;;;;;-144.73;100.00;54686.84;5031776;28;20082;-76
2024/01/08 06:46:30;;;;;;;11.57;3.07;;;;;;;-144.73;100.00;54654.00;5030218;28;20033;-75
2024/01/08 06:48:55;;;;;;;15.67;2.77;;;;;;;-144.73;100.00;54686.84;5030485;28;20028;-75
2024/01/08 06:51:23;;;;;;;7.30;3.20;;;;;;;-144.73;100.00;54670.44;5030148;28;20022;-74
2024/01/08 06:53:49;;;;;;;4.97;3.00;;;;;;;-144.73;100.00;54690.97;5030283;28;20107;-74
2024/01/08 06:56:14;;;;;;;8.37;3.17;;;;;;;-144.73;100.00;54686.84;5029800;28;20053;-74
2024/01/08 06:58:39;;;;;;;5.03;3.00;;;;;;;-144.73;100.00;54649.91;5030533;28;20053;-76
2024/01/08 07:01:05;;;;;;;8.87;3.00;;;;;;;-144.73;100.00;54703.28;5030665;28;20112;-74
2024/01/08 07:03:31;;;;;;;5.97;3.10;;;;;;;-144.73;100.00;54629.38;5033837;28;20168;-76
2024/01/08 07:06:00;;;;;;;4.53;3.00;;;;;;;-144.73;100.00;54670.44;5034148;28;20111;-76
2024/01/08 07:08:26;;;;;;;5.60;2.90;;;;;;;-144.73;100.00;54690.97;5033746;28;20041;-76
2024/01/08 07:10:51;;;;;;;6.60;3.13;;;;;;;-144.73;100.00;54678.63;5034534;28;20040;-75
2024/01/08 07:13:17;;;;;;;7.40;3.23;;;;;;;-144.73;100.00;54645.78;5033509;28;20044;-75
2024/01/08 07:15:48;;;;;;;10.50;2.97;;;;;;;-144.73;100.00;54641.69;5034163;28;20029;-75
2024/01/08 07:18:15;;;;;;;6.68;2.22;;;;;;;-144.73;100.00;54641.69;5033766;28;20116;-75
2024/01/08 07:20:43;;;;;;;6.10;2.87;;;;;;;-144.73;100.00;54670.44;5033854;28;20018;-76
2024/01/08 07:23:11;;;;;;;7.03;3.03;;;;;;;-144.73;100.00;54645.78;5033452;28;20039;-76
2024/01/08 07:25:41;;;;;;;8.50;2.93;;;;;;;-144.73;100.00;54641.69;5034536;28;20029;-76
2024/01/08 07:28:09;;;;;;;5.30;2.57;;;;;;;-144.73;100.00;54637.59;5033206;28;20083;-76
2024/01/08 07:30:35;;;;;;;13.93;4.00;;;;;;;-144.73;100.00;54678.63;5035596;28;20029;-75
2024/01/08 07:33:01;;;;;;;6.53;3.30;;;;;;;-144.73;100.00;54662.22;5034518;28;20057;-75
2024/01/08 07:35:27;;;;;;;8.37;3.27;;;;;;;-144.73;100.00;54670.44;5033760;28;20515;-74
2024/01/08 07:37:55;;;;;;;6.27;3.10;;;;;;;-144.73;100.00;54641.69;5033006;28;20040;-74
2024/01/08 07:40:26;;;;;;;9.53;4.53;;;;;;;-144.73;100.00;54641.69;5033392;28;20017;-75
2024/01/08 07:42:53;;;;;;;;;;;;;;;-144.73;100.00;54690.97;5033598;28;20030;-74
2024/01/08 07:45:18;;;;;;;12.63;3.60;;;;;;;-144.73;100.00;54662.22;5034532;28;20376;-76
2024/01/08 07:47:44;;;;;;;6.30;3.30;;;;;;;-144.73;100.00;54670.44;5032886;28;20075;-75
2024/01/08 07:50:09;;;;;;;5.93;3.17;;;;;;;-144.73;100.00;54678.63;5033314;28;20032;-76
2024/01/08 07:52:36;;;;;;;10.10;3.50;;;;;;;-144.73;100.00;54647.84;5032821;28;20103;-75
2024/01/08 07:55:02;;;;;;;10.03;3.53;;;;;;;-144.73;100.00;54629.38;5033256;28;20112;-75
2024/01/08 07:57:27;;;;;;;7.57;3.00;;;;;;;-144.73;100.00;54649.91;5032933;28;20037;-76
2024/01/08 07:59:52;;;;;;;13.53;3.60;;;;;;;-144.73;100.00;54662.22;5033198;28;20144;-76
2024/01/08 08:02:18;;;;;;;7.67;3.60;;;;;;;-144.73;100.00;54621.16;5032787;28;20052;-75
2024/01/08 08:04:43;;;;;;;7.60;3.20;;;;;;;-144.73;100.00;54658.13;5033174;28;20024;-75
2024/01/08 08:07:08;;;;;;;10.70;4.23;;;;;;;-144.73;100.00;54641.69;5032977;28;20033;-76
2024/01/08 08:09:34;;;;;;;9.10;4.20;;;;;;;-144.73;100.00;54617.06;5033657;28;20028;-75
2024/01/08 08:11:59;;;;;;;7.67;3.07;;;;;;;-144.73;100.00;54645.78;5032732;28;20095;-75
2024/01/08 08:14:26;;;;;;;6.97;3.70;;;;;;;-144.73;100.00;54678.63;5034440;28;20025;-75
2024/01/08 08:16:52;;;;;;;6.13;3.00;;;;;;;-144.73;100.00;54670.44;5032589;28;20099;-75
2024/01/08 08:19:18;;;;;;;5.57;3.17;;;;;;;-144.73;100.00;54656.06;5033353;28;20033;-75
2024/01/08 08:21:43;;;;;;;13.77;4.17;;;;;;;-144.73;100.00;54641.69;5032689;28;20033;-74
2024/01/08 08:24:12;;;;;;;8.70;4.10;;;;;;;-144.73;100.00;54649.91;5033029;28;20148;-77
2024/01/08 08:26:37;;;;;;;10.13;3.53;;;;;;;-144.73;100.00;54641.69;5032088;28;20113;-75
2024/01/08 08:29:03;;;;;;;8.20;3.80;;;;;;;-144.73;100.00;54637.59;5033502;28;20030;-75
2024/01/08 08:31:32;;;;;;;6.20;3.20;;;;;;;-144.73;100.00;54670.44;5032846;28;20087;-76
2024/01/08 08:33:57;;;;;;;11.20;3.30;;;;;;;-144.73;100.00;54695.06;5032801;28;20025;-76
2024/01/08 08:36:25;;;;;;;11.00;3.20;;;;;;;-144.73;100.00;54658.13;5032389;28;20025;-75
2024/01/08 08:38:50;;;;;;;10.90;3.63;;;;;;;-144.73;100.00;54670.44;5032786;28;20084;-75
2024/01/08 08:41:16;;;;;;;7.80;3.67;;;;;;;-144.73;100.00;54670.44;5032629;28;20029;-75
2024/01/08 08:43:41;;;;;;;14.67;3.73;;;;;;;-144.73;100.00;54625.28;5032249;28;20028;-75
2024/01/08 08:46:06;;;;;;;7.50;4.10;;;;;;;-144.73;100.00;54647.84;5032554;28;20477;-75
2024/01/08 08:48:32;;;;;;;11.50;3.90;;;;;;;-144.73;100.00;54658.13;5031917;28;20060;-75
2024/01/08 08:50:57;;;;;;;7.17;3.10;;;;;;;-144.73;100.00;54649.91;5032471;28;20029;-75
2024/01/08 08:53:22;;;;;;;5.67;3.40;;;;;;;-144.73;100.00;54670.44;5031783;28;20492;-76
2024/01/08 08:55:48;;;;;;;10.30;3.90;;;;;;;-144.73;100.00;54678.63;5032382;28;20036;-70
2024/01/08 08:58:13;;;;;;;7.70;3.40;;;;;;;-144.73;100.00;54645.78;5031673;28;20030;-70
2024/01/08 09:00:39;;;;;;;8.57;3.40;;;;;;;-144.73;100.00;54670.44;5032554;28;20079;-70
2024/01/08 09:03:05;;;;;;;7.00;3.30;;;;;;;-144.73;100.00;54682.75;5033084;28;20041;-70
2024/01/08 09:05:32;;;;;;;11.27;3.47;;;;;;;-144.73;100.00;54612.97;5032701;28;20025;-71
2024/01/08 09:07:57;;;;;;;8.50;3.63;;;;;;;-144.73;100.00;54699.16;5032089;28;20034;-72
2024/01/08 09:10:23;;;;;;;8.87;3.83;;;;;;;-144.73;100.00;54604.75;5032166;28;20078;-70
2024/01/08 09:12:48;;;;;;;10.00;3.83;;;;;;;-144.73;100.00;54621.16;5031794;28;20041;-70
2024/01/08 09:15:13;;;;;;;9.43;3.60;;;;;;;-144.73;100.00;54688.91;5033708;28;20030;-70
2024/01/08 09:17:39;;;;;;;9.40;4.30;;;;;;;-144.73;100.00;54678.63;5032763;28;20412;-70
2024/01/08 09:20:05;;;;;;;7.27;3.60;;;;;;;-144.73;100.00;54654.00;5032075;28;20040;-70
2024/01/08 09:22:31;;;;;;;9.90;3.60;;;;;;;-144.73;100.00;54674.53;5031510;28;20033;-71
2024/01/08 09:24:57;;;;;;;9.90;4.07;;;;;;;-144.73;100.00;54633.47;5031508;28;20018;-70
2024/01/08 09:27:23;;;;;;;11.63;4.13;;;;;;;-144.73;100.00;54637.59;5031315;28;20496;-71
2024/01/08 09:29:48;;;;;;;9.10;3.97;;;;;;;-144.73;100.00;54670.44;5031708;28;20087;-70
2024/01/08 09:32:14;;;;;;;11.33;3.93;;;;;;;-144.73;100.00;54670.44;5031435;28;20029;-70
2024/01/08 09:34:39;;;;;;;24.10;3.60;;;;;;;-144.73;100.00;54637.59;5031901;28;20044;-70
2024/01/08 09:37:05;;;;;;;6.10;3.37;;;;;;;-144.73;100.00;54690.97;5031507;28;20045;-70
2024/01/08 09:39:32;;;;;;;8.50;3.57;;;;;;;-144.73;100.00;54654.00;5032281;28;20388;-70
2024/01/08 09:42:00;;;;;;;12.33;3.57;;;;;;;-144.73;100.00;54658.13;5031294;28;20060;-70
2024/01/08 09:44:27;;;;;;;9.67;3.53;;;;;;;-144.73;100.00;54617.06;5032872;28;20431;-72
2024/01/08 09:46:53;;;;;;;9.50;3.13;;;;;;;-144.73;100.00;54674.53;5031438;28;20026;-70
2024/01/08 09:49:19;;;;;;;10.03;3.73;;;;;;;-144.73;100.00;54633.47;5032131;28;20026;-71
2024/01/08 09:51:45;;;;;;;12.43;4.10;;;;;;;-144.73;100.00;54649.91;5030925;28;20056;-71
2024/01/08 09:54:12;;;;;;;7.13;3.37;;;;;;;-144.73;100.00;54670.44;5032764;28;20071;-70
2024/01/08 09:56:37;;;;;;;8.37;3.87;;;;;;;-144.73;100.00;54625.28;5030860;28;20172;-70
2024/01/08 09:59:02;;;;;;;14.93;3.13;;;;;;;-144.73;100.00;54641.69;5032545;28;20084;-70
2024/01/08 10:01:28;;;;;;;6.73;3.27;;;;;;;-144.73;100.00;54699.16;5031215;28;20063;-70
2024/01/08 10:03:54;;;;;;;7.30;3.37;;;;;;;-144.73;100.00;54625.28;5032600;28;20025;-70
2024/01/08 10:06:20;;;;;;;9.50;3.47;;;;;;;-144.73;100.00;54658.13;5031060;28;20333;-70
2024/01/08 10:08:46;;;;;;;9.80;3.77;;;;;;;-144.73;100.00;54660.16;5032354;28;20021;-70
2024/01/08 10:11:12;;;;;;;8.50;3.17;;;;;;;-144.73;100.00;54682.75;5032183;28;20557;-70
2024/01/08 10:13:39;;;;;;;7.90;3.77;;;;;;;-144.73;100.00;54649.91;5031539;28;20036;-70
2024/01/08 10:16:05;;;;;;;4.27;2.50;;;;;;;-144.73;100.00;54654.00;5031287;28;20030;-70
2024/01/08 10:18:30;;;;;;;8.40;3.50;;;;;;;-144.73;100.00;54682.75;5030505;28;20038;-71
2024/01/08 10:21:10;;;;;;;6.53;3.10;;;;;;;-144.73;100.00;54627.31;5031476;28;20108;-71
2024/01/08 10:23:36;;;;;;;10.57;3.13;;;;;;;-144.73;100.00;54658.13;5031471;28;20041;-71
2024/01/08 10:26:03;;;;;;;7.43;2.77;;;;;;;-144.73;100.00;54678.63;5031201;28;20559;-71
2024/01/08 10:28:35;;;;;;;6.00;2.93;;;;;;;-144.73;100.00;54645.78;5051440;28;20056;-71
2024/01/08 10:31:03;;;;;;;16.20;3.30;;;;;;;-144.73;100.00;54674.53;5034738;28;20029;-71
2024/01/08 10:33:29;;;;;;;9.23;3.63;;;;;;;-144.73;100.00;54633.47;5033872;28;20167;-70
2024/01/08 10:35:54;;;;;;;11.17;3.00;;;;;;;-144.73;100.00;54654.00;5034115;28;20056;-70
2024/01/08 10:38:23;;;;;;;8.23;3.37;;;;;;;-144.73;100.00;54625.28;5037334;28;20433;-70
2024/01/08 10:40:48;;;;;;;8.03;2.90;;;;;;;-144.73;100.00;54627.31;5038183;28;20052;-70
2024/01/08 10:43:14;;;;;;;7.20;3.10;;;;;;;-144.73;100.00;54649.91;5037590;28;20079;-70
2024/01/08 10:45:39;;;;;;;13.37;3.13;;;;;;;-144.73;100.00;54641.69;5038194;28;20031;-70
2024/01/08 10:48:20;;;;;;;9.37;3.37;;;;;;;-144.73;100.00;54678.63;5037875;28;20060;-70
2024/01/08 10:50:46;;;;;;;4.53;2.13;;;;;;;-144.73;100.00;54641.69;5056132;28;20136;-70
2024/01/08 10:53:28;;;;;;;7.53;2.93;;;;;;;-144.73;100.00;54649.91;5037418;28;20543;-70
2024/01/08 10:55:54;;;;;;;12.90;2.70;;;;;;;-144.73;100.00;54641.69;5037938;28;20037;-70
2024/01/08 10:58:30;;;;;;;8.00;2.67;;;;;;;-144.73;100.00;54654.00;5037505;28;20061;-70
2024/01/08 11:00:56;;;;;;;6.60;2.83;;;;;;;-144.73;100.00;54649.91;5037767;28;20028;-70